Esler Regional Airport


Codes: KESF/ESF
Name: Esler Regional Airport
City: Alexandria
Country: United States
Elevation: 112 ft.
Website:
Wikipedia:

Photos at Esler Regional Airport


   Photos courtesy of SpottingLog. You can add your own sightings and photos by signing up for a free trial today.



No photos found.

Weather at Esler Regional Airport


Time (UTC)DescriptionTempratureWindCloud coverageVisibilityPressureHumidity
19-Apr-2024 03:00Scattered Clouds23°C7 mph, S36%10000m1016hPa84%
19-Apr-2024 06:00Scattered Clouds21°C7 mph, S30%10000m1016hPa89%
19-Apr-2024 09:00Scattered Clouds20°C4 mph, SW41%10000m1016hPa94%
19-Apr-2024 12:00Broken Clouds19°C2 mph, W63%10000m1016hPa99%
19-Apr-2024 15:00Broken Clouds23°C4 mph, W82%10000m1018hPa82%
19-Apr-2024 18:00Broken Clouds29°C2 mph, SW67%10000m1017hPa59%
19-Apr-2024 21:00Scattered Clouds29°C2 mph, W29%10000m1015hPa54%
20-Apr-2024 00:00Broken Clouds22°C11 mph, N65%10000m1016hPa84%
20-Apr-2024 03:00Overcast Clouds17°C7 mph, NE100%10000m1018hPa91%
20-Apr-2024 06:00Overcast Clouds16°C4 mph, NE100%10000m1018hPa94%
20-Apr-2024 09:00Overcast Clouds16°C7 mph, N95%10000m1019hPa92%
20-Apr-2024 12:00Overcast Clouds17°C7 mph, NE97%10000m1019hPa88%
20-Apr-2024 15:00Light Rain17°C11 mph, NE100%10000m1020hPa89%
20-Apr-2024 18:00Light Rain16°C9 mph, NE100%10000m1020hPa93%
20-Apr-2024 21:00Overcast Clouds16°C9 mph, NE100%10000m1019hPa89%
21-Apr-2024 00:00Overcast Clouds15°C11 mph, NE100%10000m1019hPa87%
21-Apr-2024 03:00Overcast Clouds14°C9 mph, NE100%10000m1019hPa87%
21-Apr-2024 06:00Moderate Rain12°C11 mph, NE100%4114m1019hPa98%
21-Apr-2024 09:00Moderate Rain12°C9 mph, NE100%10000m1019hPa98%
21-Apr-2024 12:00Moderate Rain12°C7 mph, N100%10000m1020hPa98%
21-Apr-2024 15:00Light Rain12°C9 mph, N100%10000m1022hPa96%
21-Apr-2024 18:00Light Rain13°C11 mph, NE100%10000m1022hPa85%
21-Apr-2024 21:00Overcast Clouds14°C11 mph, NE99%10000m1021hPa71%
22-Apr-2024 00:00Overcast Clouds13°C7 mph, NE99%10000m1020hPa75%
22-Apr-2024 03:00Scattered Clouds10°C7 mph, NE36%10000m1022hPa84%
22-Apr-2024 06:00Scattered Clouds8°C4 mph, NE29%10000m1021hPa89%
22-Apr-2024 09:00Scattered Clouds7°C4 mph, NE33%10000m1020hPa90%
22-Apr-2024 12:00Broken Clouds7°C4 mph, NE59%10000m1021hPa88%
22-Apr-2024 15:00Overcast Clouds14°C7 mph, E97%10000m1021hPa59%
22-Apr-2024 18:00Overcast Clouds19°C4 mph, E98%10000m1020hPa48%
22-Apr-2024 21:00Overcast Clouds20°C4 mph, E100%10000m1017hPa49%
23-Apr-2024 00:00Overcast Clouds17°C4 mph, SE100%10000m1017hPa72%
23-Apr-2024 03:00Scattered Clouds13°C2 mph, E47%10000m1017hPa81%
23-Apr-2024 06:00Scattered Clouds12°C2 mph, SE28%10000m1017hPa88%
23-Apr-2024 09:00Clear Sky11°C4 mph, SE10%10000m1016hPa90%
23-Apr-2024 12:00Clear Sky11°C4 mph, SE6%10000m1018hPa88%
23-Apr-2024 15:00Clear Sky19°C7 mph, S0%10000m1018hPa67%
23-Apr-2024 18:00Clear Sky24°C7 mph, S10%10000m1017hPa59%
23-Apr-2024 21:00Broken Clouds24°C4 mph, S82%10000m1015hPa63%
24-Apr-2024 00:00Overcast Clouds20°C4 mph, S90%10000m1016hPa84%